Time;durP1;ratioP1;P1;durP2;ratioP2;P2;SDS_P1;SDS_P2;PMS_P1;PMS_P2;Temp;Humidity;BMP_temperature;BMP_pressure;BME280_temperature;BME280_humidity;BME280_pressure;Samples;Min_cycle;Max_cycle;Signal;HPM_P1;HPM_P2
2022/10/10 00:01:23;;;;;;;4.45;2.45;;;11.20;59.00;;;;;;4804120;29;20057;-46
2022/10/10 00:03:51;;;;;;;3.90;2.67;;;11.20;59.70;;;;;;4798964;29;20080;-47
2022/10/10 00:06:21;;;;;;;3.38;2.85;;;11.10;58.90;;;;;;4803648;29;20055;-49
2022/10/10 00:08:56;;;;;;;2.97;2.20;;;11.10;58.80;;;;;;4803974;29;20084;-46
2022/10/10 00:11:25;;;;;;;4.18;2.20;;;11.10;58.80;;;;;;4803805;29;20047;-48
2022/10/10 00:13:55;;;;;;;3.60;2.42;;;11.10;58.80;;;;;;4798177;29;20047;-47
2022/10/10 00:16:22;;;;;;;2.42;2.22;;;11.10;59.10;;;;;;4800723;29;20050;-45
2022/10/10 00:18:51;;;;;;;3.03;2.20;;;11.10;58.90;;;;;;4807118;29;20054;-46
2022/10/10 00:21:22;;;;;;;3.42;2.42;;;11.10;58.90;;;;;;4822024;29;20039;-45
2022/10/10 00:23:49;;;;;;;2.50;2.28;;;11.10;59.30;;;;;;4804452;29;20409;-46
2022/10/10 00:26:18;;;;;;;3.03;2.55;;;11.00;59.20;;;;;;4800646;29;20047;-49
2022/10/10 00:28:47;;;;;;;2.95;2.33;;;11.00;59.20;;;;;;4803381;29;20053;-50
2022/10/10 00:31:17;;;;;;;4.10;2.80;;;11.00;59.20;;;;;;4803840;29;20505;-46
2022/10/10 00:33:44;;;;;;;2.83;2.50;;;11.00;59.30;;;;;;4799883;29;20642;-45
2022/10/10 00:36:11;;;;;;;3.05;2.33;;;11.00;59.10;;;;;;4803573;29;20061;-45
2022/10/10 00:38:37;;;;;;;3.03;2.40;;;11.00;59.20;;;;;;4803535;29;20497;-47
2022/10/10 00:41:06;;;;;;;2.83;2.50;;;11.00;59.20;;;;;;4809415;29;20412;-45
2022/10/10 00:43:33;;;;;;;2.38;2.17;;;11.00;59.30;;;;;;4801391;29;20054;-46
2022/10/10 00:46:02;;;;;;;3.33;2.88;;;10.90;59.20;;;;;;4803393;29;20104;-49
2022/10/10 00:48:38;;;;;;;3.40;2.75;;;10.90;59.20;;;;;;4803383;29;20047;-48
2022/10/10 00:51:15;;;;;;;4.93;3.13;;;10.90;59.30;;;;;;4800137;29;20043;-49
2022/10/10 00:53:51;;;;;;;2.92;2.63;;;10.90;60.00;;;;;;4804366;29;20416;-46
2022/10/10 00:56:21;;;;;;;3.45;2.45;;;10.90;59.90;;;;;;4807106;29;20043;-45
2022/10/10 00:58:53;;;;;;;4.93;2.78;;;10.90;59.40;;;;;;4806953;29;20043;-49
2022/10/10 01:01:21;;;;;;;2.58;2.35;;;10.80;59.50;;;;;;4803928;29;20497;-49
2022/10/10 01:03:48;;;;;;;3.80;2.42;;;10.80;59.40;;;;;;4806327;29;20049;-47
2022/10/10 01:06:15;;;;;;;7.45;3.08;;;10.80;59.40;;;;;;4807947;29;20117;-48
2022/10/10 01:08:42;;;;;;;3.30;2.45;;;10.80;59.50;;;;;;4825240;29;20053;-47
2022/10/10 01:11:21;;;;;;;3.63;3.33;;;10.80;59.50;;;;;;4805093;29;20121;-46
2022/10/10 01:14:11;;;;;;;2.80;2.45;;;10.80;60.30;;;;;;4806505;29;20045;-48
2022/10/10 01:16:56;;;;;;;4.53;2.80;;;10.80;60.50;;;;;;4808437;29;20058;-47
2022/10/10 01:19:23;;;;;;;3.45;2.60;;;10.80;59.90;;;;;;4805851;29;20519;-47
2022/10/10 01:22:37;;;;;;;3.63;2.20;;;10.80;59.40;;;;;;4806089;29;20041;-49
2022/10/10 01:25:31;;;;;;;3.42;2.17;;;10.80;60.60;;;;;;4788624;29;20050;-49
2022/10/10 01:28:36;;;;;;;4.82;3.05;;;10.70;60.40;;;;;;4789066;29;20524;-47
2022/10/10 01:31:04;;;;;;;;;;;10.70;60.50;;;;;;4800169;29;20104;-46
2022/10/10 01:33:41;;;;;;;2.22;2.03;;;10.70;59.90;;;;;;4805829;29;19933;-46
2022/10/10 01:36:20;;;;;;;3.35;2.58;;;10.70;59.40;;;;;;4806637;29;20049;-50
2022/10/10 01:39:28;;;;;;;3.15;2.38;;;10.70;59.90;;;;;;4803996;29;20042;-46
2022/10/10 01:42:26;;;;;;;3.67;2.47;;;10.70;60.60;;;;;;4813581;29;20508;-46
2022/10/10 01:44:53;;;;;;;3.05;2.75;;;10.60;60.20;;;;;;4805218;29;20417;-50
2022/10/10 01:47:21;;;;;;;3.28;2.78;;;10.60;59.50;;;;;;4801771;29;20452;-46
2022/10/10 01:49:52;;;;;;;3.00;2.53;;;10.60;59.70;;;;;;4806099;29;20576;-48
2022/10/10 01:52:21;;;;;;;4.90;2.60;;;10.50;59.90;;;;;;4806181;29;20412;-48
2022/10/10 01:55:00;;;;;;;2.90;2.50;;;10.50;59.70;;;;;;4804796;29;20039;-45
2022/10/10 01:57:44;;;;;;;3.08;2.33;;;10.50;60.40;;;;;;4804632;29;20130;-47
2022/10/10 02:00:15;;;;;;;4.00;3.05;;;10.60;60.50;;;;;;4806313;29;20055;-48
2022/10/10 02:03:04;;;;;;;4.05;2.50;;;10.50;60.30;;;;;;4805672;29;20051;-47
2022/10/10 02:05:36;;;;;;;4.43;2.42;;;10.50;60.50;;;;;;4800000;29;20057;-48
2022/10/10 02:08:08;;;;;;;3.22;2.63;;;10.50;60.30;;;;;;4802690;29;20125;-47
2022/10/10 02:11:00;;;;;;;4.55;2.80;;;10.50;60.50;;;;;;4805731;29;20051;-47
2022/10/10 02:13:49;;;;;;;4.45;2.67;;;10.50;60.60;;;;;;4805627;29;20054;-46
2022/10/10 02:16:27;;;;;;;3.65;2.40;;;10.50;62.20;;;;;;4803393;29;20459;-46
2022/10/10 02:19:01;;;;;;;2.85;2.28;;;10.50;60.60;;;;;;4804452;29;20035;-48
2022/10/10 02:21:31;;;;;;;2.40;2.20;;;10.50;60.40;;;;;;4805196;29;20527;-47
2022/10/10 02:24:04;;;;;;;2.78;2.55;;;10.50;60.50;;;;;;4804811;29;20416;-46
2022/10/10 02:26:32;;;;;;;3.67;2.65;;;10.50;60.70;;;;;;4799078;29;20042;-48
2022/10/10 02:29:18;;;;;;;4.30;2.30;;;10.50;60.70;;;;;;4805353;29;20053;-47
2022/10/10 02:31:47;;;;;;;3.03;2.67;;;10.50;61.80;;;;;;4805621;29;20049;-45
2022/10/10 02:34:17;;;;;;;3.35;2.60;;;10.50;60.90;;;;;;4799831;29;20061;-49
2022/10/10 02:36:50;;;;;;;3.08;2.50;;;10.50;61.30;;;;;;4805264;29;20150;-48
2022/10/10 02:39:22;;;;;;;4.30;2.60;;;10.50;61.90;;;;;;4805487;29;20536;-49
2022/10/10 02:41:51;;;;;;;5.47;2.72;;;10.50;61.60;;;;;;4801412;29;20113;-46
2022/10/10 02:44:24;;;;;;;3.40;2.90;;;10.50;61.80;;;;;;4800584;29;20074;-50
2022/10/10 02:46:51;;;;;;;5.07;2.70;;;10.60;61.90;;;;;;4804964;29;20397;-49
2022/10/10 02:49:27;;;;;;;2.85;2.55;;;10.60;62.00;;;;;;4804827;29;20057;-48
2022/10/10 02:51:54;;;;;;;5.28;2.72;;;10.60;62.60;;;;;;4805286;29;20055;-45
2022/10/10 02:54:21;;;;;;;8.15;2.95;;;10.60;62.00;;;;;;4801470;29;20437;-48
2022/10/10 02:56:47;;;;;;;2.70;2.38;;;10.60;62.00;;;;;;4805062;29;20420;-45
2022/10/10 02:59:14;;;;;;;2.85;2.50;;;10.60;61.90;;;;;;4804958;29;20133;-46
2022/10/10 03:01:41;;;;;;;4.65;2.92;;;10.60;61.80;;;;;;4799746;29;20138;-47
2022/10/10 03:04:07;;;;;;;2.55;2.35;;;10.70;61.80;;;;;;4801078;29;20070;-46
2022/10/10 03:06:37;;;;;;;2.50;2.30;;;10.60;61.70;;;;;;4804801;29;20043;-45
2022/10/10 03:09:04;;;;;;;3.00;2.28;;;10.70;61.80;;;;;;4804795;29;20050;-46
2022/10/10 03:11:35;;;;;;;3.00;2.70;;;10.70;61.80;;;;;;4799664;29;20126;-46
2022/10/10 03:14:04;;;;;;;3.05;2.40;;;10.60;61.80;;;;;;4804527;29;20479;-48
2022/10/10 03:16:36;;;;;;;2.78;2.58;;;10.60;61.70;;;;;;4805008;29;20132;-48
2022/10/10 03:19:07;;;;;;;2.08;1.77;;;10.70;61.80;;;;;;4815327;29;20220;-46
2022/10/10 03:21:35;;;;;;;3.83;2.60;;;10.60;61.80;;;;;;4793091;29;20143;-47
2022/10/10 03:24:07;;;;;;;3.75;2.47;;;10.60;61.90;;;;;;4798966;29;20081;-46
2022/10/10 03:26:35;;;;;;;3.17;2.65;;;10.60;61.90;;;;;;4804176;29;20086;-45
2022/10/10 03:29:03;;;;;;;3.88;2.63;;;10.60;62.00;;;;;;4804414;29;20055;-49
2022/10/10 03:31:29;;;;;;;3.90;2.50;;;10.60;62.10;;;;;;4799400;29;20050;-47
2022/10/10 03:33:56;;;;;;;3.22;2.40;;;10.60;62.20;;;;;;4802676;29;20051;-50
2022/10/10 03:36:23;;;;;;;3.03;2.60;;;10.60;62.20;;;;;;4804410;29;20050;-47
2022/10/10 03:38:50;;;;;;;3.63;2.47;;;10.60;62.20;;;;;;4799334;29;20058;-50
2022/10/10 03:41:21;;;;;;;2.65;2.40;;;10.60;62.40;;;;;;4799289;29;20050;-50
2022/10/10 03:43:48;;;;;;;3.30;2.38;;;10.60;62.60;;;;;;4803694;29;20046;-46
2022/10/10 03:46:14;;;;;;;2.78;2.40;;;10.60;62.40;;;;;;4804078;29;20051;-48
2022/10/10 03:48:42;;;;;;;2.90;2.40;;;10.60;62.50;;;;;;4797542;29;20047;-47
2022/10/10 03:51:09;;;;;;;4.72;2.75;;;10.60;62.50;;;;;;4804260;29;20046;-48
2022/10/10 03:53:38;;;;;;;3.45;2.95;;;10.60;62.40;;;;;;4803364;29;20146;-49
2022/10/10 03:56:07;;;;;;;3.17;2.38;;;10.60;62.30;;;;;;4799253;29;20572;-46
2022/10/10 03:58:34;;;;;;;3.17;2.78;;;10.60;62.20;;;;;;4801582;29;20051;-48
2022/10/10 04:01:04;;;;;;;4.60;2.65;;;10.60;62.30;;;;;;4801172;29;20058;-47
2022/10/10 04:03:31;;;;;;;3.25;2.70;;;10.60;62.50;;;;;;4803592;29;20134;-44
2022/10/10 04:06:00;;;;;;;3.20;2.90;;;10.60;62.30;;;;;;4801876;29;20051;-51
2022/10/10 04:08:28;;;;;;;3.25;2.72;;;10.60;62.20;;;;;;4803047;29;20073;-46
2022/10/10 04:10:55;;;;;;;4.85;3.10;;;10.60;62.20;;;;;;4803326;29;20069;-46
2022/10/10 04:13:26;;;;;;;4.63;2.90;;;10.60;62.20;;;;;;4802902;29;20119;-46
2022/10/10 04:15:54;;;;;;;3.22;2.30;;;10.60;62.60;;;;;;4800298;29;20039;-50
2022/10/10 04:18:28;;;;;;;3.15;2.22;;;10.60;62.50;;;;;;4800993;29;20576;-45
2022/10/10 04:21:01;;;;;;;2.72;2.45;;;10.60;62.50;;;;;;4803035;29;20050;-46
2022/10/10 04:23:28;;;;;;;2.70;2.50;;;10.60;62.50;;;;;;4802323;29;20046;-48
2022/10/10 04:25:55;;;;;;;2.90;2.58;;;10.50;62.20;;;;;;4800992;29;20043;-48
2022/10/10 04:28:21;;;;;;;4.60;2.75;;;10.60;62.30;;;;;;4801858;29;20057;-49
2022/10/10 04:30:49;;;;;;;5.65;2.80;;;10.50;62.30;;;;;;4803024;29;20051;-46
2022/10/10 04:33:16;;;;;;;4.45;2.28;;;10.50;62.40;;;;;;4802588;29;20043;-50
2022/10/10 04:35:43;;;;;;;2.80;2.50;;;10.50;62.50;;;;;;4799573;29;20058;-47
2022/10/10 04:38:09;;;;;;;2.53;2.33;;;10.50;62.40;;;;;;4800854;29;20122;-49
2022/10/10 04:40:36;;;;;;;5.30;2.55;;;10.40;62.30;;;;;;4803992;29;20046;-50
2022/10/10 04:43:03;;;;;;;3.90;2.72;;;10.50;62.40;;;;;;4817108;24;20055;-47
2022/10/10 04:45:30;;;;;;;3.97;3.08;;;10.50;62.60;;;;;;4802420;29;20074;-50
2022/10/10 04:48:03;;;;;;;3.10;2.78;;;10.40;62.70;;;;;;4803560;29;20093;-50
2022/10/10 04:50:36;;;;;;;3.33;2.60;;;10.40;62.70;;;;;;4798864;29;20077;-50
2022/10/10 04:53:03;;;;;;;5.03;2.92;;;10.40;62.60;;;;;;4798405;29;20048;-51
2022/10/10 04:55:31;;;;;;;4.38;2.92;;;10.40;62.60;;;;;;4788606;29;20086;-51
2022/10/10 04:58:00;;;;;;;5.43;3.00;;;10.30;62.50;;;;;;4785777;29;20050;-51
2022/10/10 05:00:26;;;;;;;4.88;2.75;;;10.40;62.80;;;;;;4785578;29;20074;-51
2022/10/10 05:02:53;;;;;;;4.18;2.70;;;10.30;63.00;;;;;;4785181;29;20054;-51
2022/10/10 05:05:22;;;;;;;4.07;3.10;;;10.30;63.30;;;;;;4789781;29;20058;-51
2022/10/10 05:07:52;;;;;;;6.13;3.03;;;10.30;63.60;;;;;;4786135;29;20055;-51
2022/10/10 05:10:25;;;;;;;5.00;3.15;;;10.30;63.80;;;;;;4785334;29;20058;-51
2022/10/10 05:12:51;;;;;;;3.45;3.05;;;10.30;63.90;;;;;;4791727;29;20134;-53
2022/10/10 05:15:20;;;;;;;3.17;2.75;;;10.30;64.10;;;;;;4784837;29;20092;-51
2022/10/10 05:17:46;;;;;;;5.13;3.08;;;10.30;64.20;;;;;;4782688;29;20055;-52
2022/10/10 05:20:13;;;;;;;4.38;3.30;;;10.30;64.40;;;;;;4783156;29;20081;-51
2022/10/10 05:22:41;;;;;;;3.30;2.95;;;10.30;64.40;;;;;;4784306;29;20051;-51
2022/10/10 05:25:11;;;;;;;4.13;3.15;;;10.30;64.50;;;;;;4791628;29;20058;-52
2022/10/10 05:27:37;;;;;;;3.53;3.22;;;10.30;64.60;;;;;;4783040;29;20067;-50
2022/10/10 05:30:04;;;;;;;4.40;3.05;;;10.40;64.60;;;;;;4781252;29;20062;-52
2022/10/10 05:32:31;;;;;;;4.43;3.08;;;10.40;64.60;;;;;;4792615;29;20528;-52
2022/10/10 05:35:00;;;;;;;6.90;3.28;;;10.40;64.60;;;;;;4792049;29;20067;-52
2022/10/10 05:37:27;;;;;;;3.47;2.90;;;10.40;64.80;;;;;;4782497;29;20059;-48
2022/10/10 05:39:53;;;;;;;3.20;2.63;;;10.40;64.70;;;;;;4786279;29;20054;-53
2022/10/10 05:42:20;;;;;;;4.88;3.63;;;10.40;64.70;;;;;;4791193;29;20448;-52
2022/10/10 05:44:47;;;;;;;3.83;2.95;;;10.40;64.80;;;;;;4793214;29;20061;-52
2022/10/10 05:47:14;;;;;;;3.45;3.08;;;10.40;64.90;;;;;;4800581;29;20058;-52
2022/10/10 05:49:40;;;;;;;4.53;3.15;;;10.40;65.00;;;;;;4791331;29;20768;-53
2022/10/10 05:52:07;;;;;;;4.22;3.13;;;10.40;65.10;;;;;;4797170;29;20142;-51
2022/10/10 05:54:36;;;;;;;3.13;2.75;;;10.40;65.10;;;;;;4793151;29;20104;-53
2022/10/10 05:57:05;;;;;;;3.78;3.42;;;10.50;65.10;;;;;;4787551;29;20047;-53
2022/10/10 05:59:39;;;;;;;3.20;2.90;;;10.50;65.30;;;;;;4790472;29;20084;-51
2022/10/10 06:02:06;;;;;;;5.72;3.88;;;10.50;65.10;;;;;;4798780;29;20039;-52
2022/10/10 06:04:32;;;;;;;3.50;3.20;;;10.50;65.20;;;;;;4787137;29;20583;-53
2022/10/10 06:06:59;;;;;;;4.13;3.10;;;10.50;65.20;;;;;;4786842;29;20059;-52
2022/10/10 06:09:26;;;;;;;5.68;3.08;;;10.50;65.20;;;;;;4783445;29;20074;-53
2022/10/10 06:11:54;;;;;;;4.28;3.15;;;10.60;65.20;;;;;;4788228;29;20047;-52
2022/10/10 06:14:21;;;;;;;4.03;3.17;;;10.50;65.10;;;;;;4784959;29;20124;-53
2022/10/10 06:16:47;;;;;;;5.57;3.65;;;10.60;65.10;;;;;;4785829;29;20512;-50
2022/10/10 06:19:14;;;;;;;6.78;3.90;;;10.60;65.20;;;;;;4786540;29;20090;-53
2022/10/10 06:21:41;;;;;;;5.68;3.90;;;10.60;65.30;;;;;;4789279;29;20117;-52
2022/10/10 06:24:09;;;;;;;6.25;3.80;;;10.60;65.40;;;;;;4785657;29;20420;-51
2022/10/10 06:26:36;;;;;;;4.57;3.60;;;10.60;65.50;;;;;;4785259;30;20420;-52
2022/10/10 06:29:03;;;;;;;5.60;3.15;;;10.70;65.60;;;;;;4787615;29;20057;-52
2022/10/10 06:31:30;;;;;;;5.05;3.63;;;10.70;65.70;;;;;;4786514;29;20055;-51
2022/10/10 06:33:57;;;;;;;5.25;3.78;;;10.70;65.70;;;;;;4785384;29;20047;-50
2022/10/10 06:36:29;;;;;;;4.40;3.45;;;10.70;65.80;;;;;;4787280;29;20062;-53
2022/10/10 06:38:55;;;;;;;4.00;3.45;;;10.80;65.90;;;;;;4785991;29;20460;-53
2022/10/10 06:41:22;;;;;;;3.85;3.20;;;10.80;65.80;;;;;;4785902;29;20043;-53
2022/10/10 06:43:51;;;;;;;6.88;4.07;;;10.80;65.70;;;;;;4804497;29;20050;-52
2022/10/10 06:46:18;;;;;;;4.72;3.25;;;10.80;65.60;;;;;;4792901;29;20050;-53
2022/10/10 06:48:45;;;;;;;5.38;3.17;;;10.80;65.60;;;;;;4793333;29;20513;-53
2022/10/10 06:51:15;;;;;;;5.18;3.30;;;10.90;65.60;;;;;;4789511;29;20058;-53
2022/10/10 06:53:42;;;;;;;4.40;3.15;;;10.90;65.60;;;;;;4786256;29;20513;-52
2022/10/10 06:56:16;;;;;;;3.80;3.35;;;10.80;65.50;;;;;;4786789;29;20085;-53
2022/10/10 06:58:52;;;;;;;;;;;10.90;65.60;;;;;;4800738;29;20058;-51
2022/10/10 07:01:20;;;;;;;3.88;2.70;;;10.90;66.00;;;;;;4784514;29;20298;-53
2022/10/10 07:03:47;;;;;;;4.03;3.33;;;10.90;64.90;;;;;;4786159;29;20136;-54
2022/10/10 07:06:15;;;;;;;5.35;3.50;;;10.90;65.10;;;;;;4793321;29;20055;-53
2022/10/10 07:08:43;;;;;;;3.63;3.33;;;10.90;65.40;;;;;;4800044;29;20133;-52
2022/10/10 07:11:10;;;;;;;7.32;3.90;;;10.90;65.50;;;;;;4787360;29;20421;-52
2022/10/10 07:13:37;;;;;;;4.93;4.20;;;11.00;65.80;;;;;;4786126;29;20457;-53
2022/10/10 07:16:05;;;;;;;6.18;4.15;;;11.00;66.00;;;;;;4787519;29;20039;-53
2022/10/10 07:18:34;;;;;;;5.95;3.58;;;11.00;66.20;;;;;;4791056;29;20047;-53
2022/10/10 07:21:03;;;;;;;5.30;3.78;;;11.00;66.30;;;;;;4785449;29;20469;-53
2022/10/10 07:23:31;;;;;;;6.72;4.10;;;11.00;66.30;;;;;;4786223;29;20112;-52
2022/10/10 07:26:04;;;;;;;5.00;3.75;;;11.00;66.30;;;;;;4791940;29;20049;-48
2022/10/10 07:28:31;;;;;;;7.13;4.18;;;11.10;66.80;;;;;;4786401;29;20055;-52
2022/10/10 07:31:06;;;;;;;5.80;3.80;;;11.10;66.50;;;;;;4785791;29;20051;-52
2022/10/10 07:33:35;;;;;;;5.28;3.67;;;11.10;66.80;;;;;;4785911;29;20074;-52
2022/10/10 07:36:03;;;;;;;4.90;3.45;;;11.10;66.60;;;;;;4789192;29;20652;-53
2022/10/10 07:38:29;;;;;;;5.35;4.05;;;11.20;66.50;;;;;;4785757;29;20055;-53
2022/10/10 07:40:56;;;;;;;6.20;3.78;;;11.20;66.60;;;;;;4786216;29;20055;-51
2022/10/10 07:43:23;;;;;;;6.13;3.85;;;11.20;66.50;;;;;;4785726;29;20052;-50
2022/10/10 07:45:49;;;;;;;8.85;4.63;;;11.20;66.40;;;;;;4789444;29;20047;-53
2022/10/10 07:48:16;;;;;;;6.70;4.57;;;11.30;66.50;;;;;;4785447;29;20052;-48
2022/10/10 07:50:43;;;;;;;7.13;4.47;;;11.30;66.70;;;;;;4786534;29;20448;-51
2022/10/10 07:53:11;;;;;;;7.97;4.70;;;11.40;67.00;;;;;;4787890;29;20467;-53
2022/10/10 07:55:41;;;;;;;5.47;4.70;;;11.40;67.20;;;;;;4792094;29;20043;-52
2022/10/10 07:58:09;;;;;;;5.72;4.20;;;11.40;67.20;;;;;;4797527;29;20058;-53
2022/10/10 08:00:41;;;;;;;6.07;4.78;;;11.50;67.30;;;;;;4806432;29;20051;-53
2022/10/10 08:03:09;;;;;;;5.82;4.43;;;11.50;67.50;;;;;;4808310;29;20125;-53
2022/10/10 08:05:43;;;;;;;6.43;4.60;;;11.60;67.90;;;;;;4792305;29;20082;-52
2022/10/10 08:08:10;;;;;;;5.45;4.93;;;11.60;67.90;;;;;;4785706;29;20051;-53
2022/10/10 08:10:41;;;;;;;8.50;5.00;;;11.70;67.80;;;;;;4786532;29;20054;-50
2022/10/10 08:13:07;;;;;;;5.70;4.00;;;11.70;68.00;;;;;;4790509;29;20043;-53
2022/10/10 08:15:37;;;;;;;5.32;4.03;;;11.80;68.10;;;;;;4787337;29;20043;-51
2022/10/10 08:18:04;;;;;;;5.80;3.70;;;11.90;68.40;;;;;;4792208;29;20043;-53
2022/10/10 08:20:30;;;;;;;6.70;4.50;;;11.90;68.80;;;;;;4795063;29;20038;-53
2022/10/10 08:22:57;;;;;;;6.15;3.47;;;12.00;69.40;;;;;;4791319;29;20053;-53
2022/10/10 08:25:25;;;;;;;7.38;4.47;;;12.10;69.90;;;;;;4789364;29;20073;-51
2022/10/10 08:27:51;;;;;;;8.05;4.00;;;12.20;70.10;;;;;;4784670;29;20051;-53
2022/10/10 08:30:18;;;;;;;5.93;4.65;;;12.30;70.30;;;;;;4787960;29;20053;-53
2022/10/10 08:32:45;;;;;;;4.55;3.35;;;12.40;70.60;;;;;;4788132;29;20059;-53
2022/10/10 08:35:15;;;;;;;7.40;4.00;;;12.50;70.90;;;;;;4784659;29;20051;-53
2022/10/10 08:37:41;;;;;;;4.43;2.95;;;12.60;71.20;;;;;;4785704;29;20055;-53
2022/10/10 08:40:15;;;;;;;7.38;3.15;;;12.80;71.20;;;;;;4793801;29;20412;-53
2022/10/10 08:42:49;;;;;;;4.70;3.15;;;12.90;71.60;;;;;;4780730;29;20055;-53
2022/10/10 08:45:23;;;;;;;5.57;3.30;;;13.10;71.50;;;;;;4784279;29;20053;-52
2022/10/10 08:48:03;;;;;;;5.75;3.55;;;13.30;71.40;;;;;;4784483;29;20055;-53
2022/10/10 08:50:50;;;;;;;5.55;3.28;;;13.50;72.00;;;;;;4793918;29;20043;-52
2022/10/10 08:53:30;;;;;;;4.63;2.80;;;13.70;71.90;;;;;;4784480;29;20051;-53
2022/10/10 08:55:58;;;;;;;4.30;2.85;;;13.90;71.00;;;;;;4766416;30;20051;-51
2022/10/10 08:58:31;;;;;;;4.82;3.55;;;14.10;70.30;;;;;;4785979;29;20492;-53
2022/10/10 09:01:14;;;;;;;5.03;2.90;;;14.20;70.30;;;;;;4787237;29;20044;-53
2022/10/10 09:03:49;;;;;;;6.40;2.88;;;14.40;70.30;;;;;;4784683;29;20470;-53
2022/10/10 09:06:21;;;;;;;4.75;2.65;;;14.50;69.50;;;;;;4784544;29;20047;-53
2022/10/10 09:08:53;;;;;;;7.30;4.15;;;14.60;68.80;;;;;;4789351;29;20083;-53
2022/10/10 09:11:35;;;;;;;10.00;2.95;;;14.70;68.80;;;;;;4784141;29;20048;-53
2022/10/10 09:14:17;;;;;;;5.40;3.13;;;14.90;68.70;;;;;;4786456;29;20078;-53
2022/10/10 09:17:01;;;;;;;7.63;2.77;;;15.00;68.50;;;;;;4788502;29;20054;-53
2022/10/10 09:20:05;;;;;;;4.47;2.88;;;15.20;68.30;;;;;;4797069;29;20042;-53
2022/10/10 09:22:50;;;;;;;5.30;2.78;;;15.30;68.20;;;;;;4787076;30;20070;-53
2022/10/10 09:25:19;;;;;;;6.68;3.92;;;15.40;67.90;;;;;;4789449;29;20050;-53
2022/10/10 09:27:57;;;;;;;4.40;3.00;;;15.40;67.20;;;;;;4794622;29;20108;-52
2022/10/10 09:30:24;;;;;;;6.47;3.20;;;15.50;67.20;;;;;;4787646;29;20477;-53
2022/10/10 09:32:53;;;;;;;4.68;3.03;;;15.60;67.00;;;;;;4788176;29;20056;-52
2022/10/10 09:35:34;;;;;;;4.70;3.13;;;15.70;67.00;;;;;;4803574;29;20046;-51
2022/10/10 09:38:35;;;;;;;4.97;3.03;;;15.80;67.10;;;;;;4801378;29;20420;-52
2022/10/10 09:41:16;;;;;;;5.40;2.97;;;16.00;67.20;;;;;;4780317;30;20061;-53
2022/10/10 09:43:43;;;;;;;4.00;2.85;;;16.10;66.60;;;;;;4789162;29;20428;-51
2022/10/10 09:46:10;;;;;;;5.03;2.78;;;16.20;66.20;;;;;;4791877;29;20051;-53
2022/10/10 09:48:39;;;;;;;5.57;3.15;;;16.30;66.20;;;;;;4787502;29;20059;-53
2022/10/10 09:51:14;;;;;;;6.43;2.50;;;16.40;65.90;;;;;;4788049;29;20051;-53
2022/10/10 09:53:43;;;;;;;11.60;3.22;;;16.50;66.00;;;;;;4792624;29;20123;-54
2022/10/10 09:56:20;;;;;;;4.68;2.45;;;16.60;65.80;;;;;;4792294;29;20057;-53
2022/10/10 09:58:53;;;;;;;8.27;2.60;;;16.70;65.60;;;;;;4786885;30;20050;-53
2022/10/10 10:01:22;;;;;;;;;;;16.90;65.20;;;;;;4788630;29;20177;-53
2022/10/10 10:04:08;;;;;;;4.30;3.05;;;17.00;65.20;;;;;;4787848;29;19925;-51
2022/10/10 10:07:21;;;;;;;5.22;2.70;;;17.10;64.50;;;;;;4799072;29;20047;-52
2022/10/10 10:09:53;;;;;;;3.67;2.75;;;17.20;64.20;;;;;;4794553;29;20053;-53
2022/10/10 10:12:38;;;;;;;5.80;2.45;;;17.40;65.10;;;;;;4800191;29;20043;-49
2022/10/10 10:15:20;;;;;;;6.03;2.83;;;17.50;64.20;;;;;;4790205;29;20054;-53
2022/10/10 10:18:16;;;;;;;6.93;2.60;;;17.60;64.00;;;;;;4785652;29;20078;-54
2022/10/10 10:20:44;;;;;;;7.20;2.70;;;17.70;64.00;;;;;;4791464;29;20043;-54
2022/10/10 10:23:39;;;;;;;4.55;2.40;;;17.80;63.20;;;;;;4787178;29;20468;-53
2022/10/10 10:26:18;;;;;;;2.50;2.17;;;17.90;63.20;;;;;;4779559;29;20059;-54
2022/10/10 10:28:47;;;;;;;2.65;1.98;;;17.90;63.00;;;;;;4791517;29;20099;-54
2022/10/10 10:31:53;;;;;;;4.20;2.25;;;18.00;62.70;;;;;;4789162;29;20058;-54
2022/10/10 10:34:38;;;;;;;5.63;2.67;;;18.10;62.50;;;;;;4794244;29;20046;-53
2022/10/10 10:37:16;;;;;;;8.50;3.13;;;18.20;62.50;;;;;;4780502;29;20638;-54
2022/10/10 10:40:21;;;;;;;6.70;3.10;;;18.30;62.30;;;;;;4788700;29;20063;-53
2022/10/10 10:43:25;;;;;;;4.78;2.42;;;18.40;61.90;;;;;;4783607;29;20070;-53
2022/10/10 10:46:02;;;;;;;6.28;2.45;;;18.50;61.60;;;;;;4767078;30;20047;-53
2022/10/10 10:48:52;;;;;;;6.10;2.00;;;18.60;61.20;;;;;;4800868;24;20062;-51
2022/10/10 10:51:49;;;;;;;4.22;2.17;;;18.70;61.10;;;;;;4795652;29;20049;-50
2022/10/10 10:54:38;;;;;;;8.88;2.30;;;18.80;60.90;;;;;;4799015;29;20428;-51
2022/10/10 10:57:12;;;;;;;6.28;2.47;;;18.90;60.60;;;;;;4803925;29;20417;-50
2022/10/10 11:00:02;;;;;;;;;;;19.00;60.60;;;;;;4809362;29;20480;-49
2022/10/10 11:03:10;;;;;;;4.70;2.28;;;19.20;60.80;;;;;;4801226;29;19933;-51
2022/10/10 11:06:16;;;;;;;6.18;2.45;;;19.40;59.60;;;;;;4801858;29;20035;-49
2022/10/10 11:08:56;;;;;;;4.13;3.08;;;19.50;59.80;;;;;;4803064;29;20059;-50
2022/10/10 11:11:38;;;;;;;4.97;2.45;;;19.60;59.60;;;;;;4798509;29;20038;-50
2022/10/10 11:14:16;;;;;;;6.65;2.88;;;19.60;59.10;;;;;;4807012;29;20042;-48
2022/10/10 11:16:54;;;;;;;4.90;2.20;;;19.70;58.90;;;;;;4802263;29;20047;-47
2022/10/10 11:19:38;;;;;;;7.05;3.00;;;19.70;58.30;;;;;;4810102;29;20044;-51
2022/10/10 11:22:10;;;;;;;3.67;2.42;;;19.80;58.50;;;;;;4802642;29;20092;-48
2022/10/10 11:25:07;;;;;;;5.30;2.50;;;19.80;58.30;;;;;;4800144;29;20104;-47
2022/10/10 11:27:41;;;;;;;7.93;2.40;;;19.90;57.80;;;;;;4803551;29;20050;-48
2022/10/10 11:30:18;;;;;;;7.57;2.78;;;19.90;57.90;;;;;;4797853;29;20054;-48
2022/10/10 11:33:08;;;;;;;10.23;4.25;;;20.00;57.90;;;;;;4802401;29;20058;-51
2022/10/10 11:36:06;;;;;;;5.72;2.17;;;20.10;58.00;;;;;;4825472;29;20093;-47
2022/10/10 11:38:37;;;;;;;5.97;2.65;;;20.10;57.90;;;;;;4799352;29;20053;-50
2022/10/10 11:41:15;;;;;;;6.85;3.17;;;20.20;57.50;;;;;;4803296;29;20473;-49
2022/10/10 11:43:47;;;;;;;6.63;3.22;;;20.20;57.20;;;;;;4803691;29;20054;-51
2022/10/10 11:46:38;;;;;;;7.10;2.45;;;20.30;57.20;;;;;;4799615;29;20053;-50
2022/10/10 11:49:11;;;;;;;7.65;2.65;;;20.30;57.20;;;;;;4801249;29;20045;-48
2022/10/10 11:51:54;;;;;;;6.43;2.27;;;20.40;57.40;;;;;;4803663;29;20121;-52
2022/10/10 11:55:05;;;;;;;7.38;3.13;;;20.50;57.40;;;;;;4803390;29;20043;-52
2022/10/10 11:57:53;;;;;;;5.03;2.40;;;20.50;57.20;;;;;;4802140;29;20472;-49
2022/10/10 12:00:23;;;;;;;7.13;2.53;;;20.60;57.00;;;;;;4803050;29;20047;-51
2022/10/10 12:02:50;;;;;;;4.78;2.47;;;20.70;56.90;;;;;;4802530;29;20051;-50
2022/10/10 12:05:28;;;;;;;7.20;3.10;;;20.70;56.90;;;;;;4799696;29;20435;-49
2022/10/10 12:08:11;;;;;;;5.93;2.17;;;20.80;56.40;;;;;;4801273;29;20168;-49
2022/10/10 12:10:53;;;;;;;5.30;2.20;;;20.80;56.40;;;;;;4802912;29;20599;-51
2022/10/10 12:13:42;;;;;;;6.15;2.80;;;20.90;56.00;;;;;;4802830;29;20055;-52
2022/10/10 12:16:14;;;;;;;8.50;2.58;;;20.90;56.00;;;;;;4801449;29;20121;-53
2022/10/10 12:18:55;;;;;;;8.43;2.65;;;21.00;56.20;;;;;;4802924;29;20577;-48
2022/10/10 12:21:24;;;;;;;10.00;2.53;;;21.00;55.80;;;;;;4801992;29;20046;-53
2022/10/10 12:24:08;;;;;;;6.97;3.35;;;21.00;55.60;;;;;;4802540;29;20050;-51
2022/10/10 12:26:51;;;;;;;7.90;2.88;;;21.10;55.80;;;;;;4799311;29;20051;-52
2022/10/10 12:29:53;;;;;;;8.70;3.67;;;21.20;55.70;;;;;;4803224;29;20043;-52
2022/10/10 12:32:24;;;;;;;5.70;2.58;;;21.20;55.60;;;;;;4802199;29;20043;-52
2022/10/10 12:34:51;;;;;;;7.82;3.00;;;21.30;56.10;;;;;;4799565;29;20065;-49
2022/10/10 12:37:24;;;;;;;7.97;2.22;;;21.40;55.80;;;;;;4802887;29;20489;-49
2022/10/10 12:40:06;;;;;;;6.88;2.55;;;21.50;55.50;;;;;;4801391;29;20142;-51
2022/10/10 12:42:39;;;;;;;6.68;2.50;;;21.60;55.00;;;;;;4798231;29;20130;-51
2022/10/10 12:45:30;;;;;;;7.60;2.28;;;21.70;54.70;;;;;;4796256;29;20109;-51
2022/10/10 12:48:03;;;;;;;6.40;2.50;;;21.80;54.50;;;;;;4795248;29;20129;-53
2022/10/10 12:50:43;;;;;;;6.63;3.17;;;21.80;53.90;;;;;;4814178;29;20065;-52
2022/10/10 12:53:12;;;;;;;4.93;2.28;;;21.80;53.30;;;;;;4803038;29;20043;-50
2022/10/10 12:55:44;;;;;;;5.65;2.60;;;21.70;53.80;;;;;;4806517;29;20419;-52
2022/10/10 12:58:32;;;;;;;8.80;2.47;;;21.70;53.70;;;;;;4806251;29;20062;-52
2022/10/10 13:01:06;;;;;;;3.58;1.88;;;21.70;53.80;;;;;;4801390;29;20415;-52
2022/10/10 13:03:37;;;;;;;4.63;2.03;;;21.70;53.80;;;;;;4802768;29;20129;-53
2022/10/10 13:06:27;;;;;;;4.80;2.15;;;21.70;53.80;;;;;;4806167;29;20042;-53
2022/10/10 13:08:56;;;;;;;6.35;2.72;;;21.70;53.50;;;;;;4805999;29;20046;-51
2022/10/10 13:11:23;;;;;;;6.70;2.15;;;21.80;53.30;;;;;;4803506;29;20550;-50
2022/10/10 13:13:55;;;;;;;7.90;2.72;;;21.90;53.30;;;;;;4805419;29;20054;-50
2022/10/10 13:16:26;;;;;;;6.45;3.03;;;21.90;52.90;;;;;;4805969;29;20062;-53
2022/10/10 13:18:59;;;;;;;9.38;2.78;;;22.00;53.50;;;;;;4811406;29;20082;-50
2022/10/10 13:21:31;;;;;;;7.88;2.45;;;22.00;53.10;;;;;;4797855;29;20058;-52